Timeline UpdatesTrip UpdatesNews PostsPvt Posts♥♥Travel TipsAdmin PostsConv PostsFollowed PostsChat RequestsBlog PostsPNR Posts

Disclaimer
Search
 
 
Sat Nov 1, 2014 00:12:07 ISTHomeTrainsΣChainsAtlasPNRForumGalleryNewsFAQTripsMembersLoginFeedback
No Recent News for this Train
Other Trains in the News **new
Latest...
Booking not Avbl for All Stations Between Mangalore-Tirupathi
Tue Sep 02, 2014 (11:40AM)
⇐ Return Journey: Train# 16688

16687 slip route⇒16687/Navyug Express

Time-Table HAS CHANGED.
Sep 03 2014 (11:58AM)
Change Departure Station:
Change Arrival Station:
Post a Train Travel TipPost a Train Travel Tip **new
Post a Comment/Question/Picture/VideoPost a Comment/Question/Picture/Video
Pantry/Catering
✓ Pantry Car Avbl
✓ Catering Avbl
Good Food
RSA - Rake Sharing
NO RSA
Rake/Coach Composition
LOCO-SLR-UR-A2-S9-S8-S7-S6-PC-S5-S4-S3-S2-S1-A1-B1-UR-UR-SLR
Loco
WDM3A ERS shed MAQ-SRR SRR to NDLS - WAP 4 WDM3A TKD...
Read more...
Shed frm NDLS 2 JAT
News    PNR    Forum    Time-Table    Availability    Fare Chart    Map    Arr/Dep History    Trips    Gallery    ΣChains    X/O    Timeline    
Travel Time: 0h 32m    0 halts    Distance: 9 km    Avg Speed: 16 km/hr
Type: Mail/Express
Zone: SR/Southern
Departs @ 12:38
Platform# 1
    T  
Bari Brahman/BBMN 
Arrives @ 13:10 (Avg 37m late)
Platform# 3
    T  
Jammu Tawi/JAT 

0 halts. 0 intermediate Stations between Bari Brahman and Jammu Tawi

Show ALL intermediate Stations  Show Old Time-Table

#TrkCodeStation NameX/OArrivesAvgDepartsAvgHaltPFDay#KmSpeedElevZoneAddress
1%==%MAQMangalore Central (4)  -16:50+821-3599.97214mSRMangalore 575001, Karnataka
2%==%KGQKasaragod (3)  17:34 17:28+2317:35 17:30+231 2m--1-3554.25718mSRTel: 04994 220800, Kerala
3%==%CANKannur Main (4)X  19:05 19:00+519:10 19:05+105m31-3468.16514mSRKannur Tel: 0497 2705555, Kerala
4%==%TLYThalassery (2)  19:29 19:24+1119:30 19:26+121 2m--1-3447.4559mSRKannur, Kerala
5%==%CLTKozhikode Main (4)  20:45 20:40+1020:50 20:45+135m--1-3379.15511mSRCalicut Tel: 0495 2701234, Kerala
6%==%SRRShoranur Junction (7)  22:20-122:30+1310m41-3292.75926mSRShoranur ph.no 0466-2222913, Kerala
7/==/PGTPalakkad Junction (4)  23:15+623:20+85m31-3248.14184mSRPalghat Tel: 0491 2555231, Kerala
8/==/CBECoimbatore Main Junction (6)  00:41+800:45+114m--2-3192.870416mSRCoimbatore 641001, Tamil Nadu
9/==/TUPTiruppur (2)X  01:28+1301:30+132m22-3142.432305mSRTiruppur. Ph:0421-2200450, Tamil Nadu
10/==/EDErode Junction (4)X  02:55 03:05+003:05 03:10+1010 5m12-3092.182175mSRErode ph.no: 0424-2256111, Tamil Nadu
11/==/SASalem Junction (6)X  03:55+1704:00+175m--2-3030.856283mSRSalem, Tamil Nadu
12/==/JTJJolarpettai Junction (5)  06:08+306:10+32m--2-2910.669405mSRJolarpettai, Tamil Nadu
13/==/KPDKatpadi Junction (5)  07:23-107:25+32m--2-2826.747213mSRVellore 632007, Tamil Nadu
14/--/CTOChittoor (3)X  08:07+208:08+51m--2-2793.651305mSCR517001., Andhra Pradesh
15/--/TPTYTirupati Main (5)  09:33+1009:35+112m--2-2721.840150mSCRChittoor Distt, Andhra Pradesh
16/==/RURenigunta Junction (5)  09:50+1810:00+2110m--2-2711.951113mSCRChittoor District, Andhra Pradesh
17/==/GDRGudur Junction (3)XO  11:38+1411:40+192m22-2628.5-19mSCRGudur, Andhra Pradesh
18/==/NLRNellore (4)  12:05 11:50+5412:06 11:51+551m22-2590.08121mSCRNellore, Andhra Pradesh
19/==/OGLOngole (3)  13:32 13:18+1:0013:33 13:19+1:011m12-2473.28612mSCROngole, Andhra Pradesh
20/==/TELTenali Junction (5)XO  14:50 14:34+014:51 14:35+01m42-2366.22216mSCRTel: 08644-227834, Andhra Pradesh
21/==/BZAVijayawada Junction (10)X  16:10 16:00+1616:25 16:20+1515 20m--2-2335.08624mSCRVijayawada 520001, Andhra Pradesh
22/==/KMTKhammam (2)  17:30+3517:32+352m22-2234.650118mSCRKhammam 507001, Telangana
23/==/WLWarangal (3)  19:40+2119:45+285m22-2127.076271mSCRWarangal., Telangana
24/==/RDMRamagundam (3)  21:05+4021:06+401m12-2025.959170mSCRKarimnagar Dist. Ph : 08728 - 255237, Telangana
25/==/BPQBalharshah Junction (5)  23:30+2523:40+3210m--2-1884.152188mCRBallarpur. Ph : 07172 - 240341, Maharashtra
26/==/CDChandrapur Maharashtra (3)  23:56+4023:57+411m--2-1870.373194mCRChandrapur 442401, Maharashtra
27/==/SEGMSewagram Junction (5)X  01:35 01:34+3601:36+351 2m--3-1751.766279mCRWardha, Maharashtra
28/==/NGPNagpur Junction (8)  02:45+3102:55+3310m13-1675.566314mCRNagpur 440001, Maharashtra
29/==/ETItarsi Junction (7)X  07:25+2207:30+295m--3-1378.352329mWCRItarsi 461111, Madhya Pradesh
30/==/BPLBhopal Junction (6)  09:15+3409:20+345m23-1286.662497mWCRBhopal, Madhya Pradesh
31/==/JHSJhansi Junction (7)X  14:02+814:10 14:12+98 10m--3-994.875259mNCRJhansi, Uttar Pradesh
32/==/GWLGwalior Junction (4)X  15:30+1415:35+135m43-897.183214mNCRGwalior, Madhya Pradesh
33/==/DHODholpur Junction (3)X  16:23 16:22+4516:24+511 2m13-831.752177mNCRDholpur, Rajasthan
34/==/AGCAgra Cantt. (6)  17:25+5217:30+545m33-779.167174mNCRAgra, Uttar Pradesh
35/==/FDBFaridabad (4)  20:00+1:2220:01+1:221m23-612.232206mNRold Faridabad, Haryana
36/==/NZMDelhi Hazrat Nizamuddin (7)XO  20:40+5021:10+4530m13-591.415209mNRNew Delhi 110013, Delhi NCT
37/==/NDLSNew Delhi (16)  21:40+4200:10+13150m53-584.020215mNRNew Delhi, Delhi NCT
38/==/SSBShakur Basti  00:43 00:42+900:44+91 2m--4-573.270216mNRPitampura, Delhi NCT
39/==/BGZBahadurgarh  01:01+1701:02+181m--4-553.269220mNRBahadurgarh, Haryana
40/==/ROKRohtak Junction (3)O  01:35 01:37+1101:40+115 3m--4-513.062220mNRRohtak, Haryana
41|==|JINDJind Junction (3)  02:35+4702:40+475m--4-455.978222mNRJind 126102, Haryana
42|==|NRWNarwana Junction (4)  03:06+1303:07+141m--4-422.073235mNRWay to Narwana, Haryana
43|==|TUNTohana (2)  03:28+2303:29+241m--4-396.524232mNRTohana, Haryana
44|=-|JHLJakhal JunctionX  04:05 04:00+2004:10 04:05+175m--4-384.360225mNRJakhal, Haryana
45|--|LHALehra Gaga (1) new halt!!O  04:22+2204:24+222m14-367.371227mNRSangrur, Punjab
46|--|SFMSunam (1)O  04:43 04:42+1204:44+121 2m14-346.064235mNRSunam, Punjab
47|--|SAGSangrur (2)X  04:57 04:56+2404:58+241 2m24-333.230239mNRSangrur, Punjab
48|--|DUIDhuri Junction (4)  05:30+1505:35+155m--4-317.278248mNRDhuri, Punjab
49|--|METMalerkotla (2)O  05:49 05:48+1705:50+171 2m--4-300.466248mNRMalerkotla., Punjab
50|--|AHHAhmadgarh (1) new halt!!X  06:08+1606:10+162m14-280.526256mNRAhmedgarh, Punjab
51|--|QRPKila Raipur (1)  06:27 06:28+706:28 06:30+71 2m14-272.936262mNRDelhon Pakhowal Rd, Punjab
52|--|LDHLudhiana Junction (7)X  06:50 07:00+1907:00 07:10+1910m44-255.160246mNRLudhiana 141001, Punjab
53/==/PHRPhillaur Junction (3)X  07:24 07:23-07:25-1 2m24-242.075246mNRPhillaur, Punjab
54/==/PGWPhagwara Junction (3)X  07:44 07:43-07:45-1 2m24-219.565245mNRPhagwara, Punjab
55/==/JRCJalandhar Cantt. Junction (3)O  08:00-08:05-5m34-203.263239mNRNear Rama Mandi, Punjab
56/--/TDOTanda Urmar (3)X  08:46 08:45+4308:47+421 2m14-160.966239mNRUrmar Tanda, Punjab
57/--/DZADasuya (2)  09:02 09:01-09:03-1 2m14-145.656251mNRDasuya distt. hoshiarpur, Punjab
58/--/MEXMukerian (3)X  09:20 09:19-09:21-1 2m24-130.535257mNRMukerian distt. hosiharpur, Punjab
59/--/PTKCPathankot Cantt (3)X  10:30-10:35-5m24-90.732328mNRPathankot By Pass Ph:0186-2251594, Punjab
60/--/KTHUKathua (2)X  11:20 11:19+4311:21+431 2m14-67.562396mNRdistt. kathua, Jammu and Kashmir
61/--/SMBXSamba (2)  12:04 12:03-12:05-1 2m24-23.946365mNRDist. Samba, Jammu and Kashmir
62/--/BBMNBari Brahman (2)»  12:37 12:36-12:38-1 2m140.016333mNRdistt. samba, Jammu and Kashmir
63/--/JATJammu Tawi (3)•  13:10+37-348.7-337mNRJammu 180002, Jammu and Kashmir
Scroll to Top
Scroll to Bottom